createdAt,value
2022-07-27T00:03:32.898Z,100695.28
2022-07-27T00:08:37.089Z,100700.00
2022-07-27T00:13:40.749Z,100698.47
2022-07-27T00:18:43.583Z,100698.63
2022-07-27T00:23:47.868Z,100701.91
2022-07-27T00:28:51.294Z,100705.00
2022-07-27T00:33:54.242Z,100695.94
2022-07-27T00:38:58.453Z,100697.63
2022-07-27T00:44:01.830Z,100687.81
2022-07-27T00:49:04.901Z,100681.41
2022-07-27T00:54:09.180Z,100690.38
2022-07-27T00:59:15.082Z,100694.47
2022-07-27T01:04:17.949Z,100694.28
2022-07-27T01:09:39.977Z,100690.34
2022-07-27T01:14:42.921Z,100694.31
2022-07-27T01:19:47.696Z,100699.72
2022-07-27T01:24:52.044Z,100696.59
2022-07-27T01:29:54.890Z,100692.91
2022-07-27T01:34:57.679Z,100697.28
2022-07-27T01:40:01.824Z,100691.56
2022-07-27T01:45:05.006Z,100699.78
2022-07-27T01:50:08.800Z,100692.41
2022-07-27T01:55:13.359Z,100704.63
2022-07-27T02:00:16.781Z,100694.28
2022-07-27T02:05:19.689Z,100692.56
2022-07-27T02:10:24.326Z,100699.84
2022-07-27T02:15:28.818Z,100696.16
2022-07-27T02:20:45.919Z,100689.78
2022-07-27T02:25:50.167Z,100689.91
2022-07-27T02:30:52.998Z,100695.03
2022-07-27T02:35:56.053Z,100700.81
2022-07-27T02:41:00.178Z,100698.94
2022-07-27T02:46:03.036Z,100708.41
2022-07-27T02:51:06.140Z,100702.59
2022-07-27T02:56:10.848Z,100699.91
2022-07-27T03:01:13.657Z,100697.59
2022-07-27T03:06:16.572Z,100700.03
2022-07-27T03:11:20.732Z,100701.44
2022-07-27T03:16:23.645Z,100712.63
2022-07-27T03:21:27.019Z,100701.44
2022-07-27T03:26:33.235Z,100700.41
2022-07-27T03:31:36.046Z,100700.81
2022-07-27T03:36:38.833Z,100710.47
2022-07-27T03:41:44.091Z,100709.47
2022-07-27T03:46:47.150Z,100701.38
2022-07-27T03:51:49.915Z,100711.47
2022-07-27T03:56:54.319Z,100710.97
2022-07-27T04:01:57.231Z,100716.97
2022-07-27T04:07:01.843Z,100714.19
2022-07-27T04:12:06.701Z,100709.25
2022-07-27T04:17:09.587Z,100717.75
2022-07-27T04:22:12.522Z,100716.75
2022-07-27T04:27:16.612Z,100715.72
2022-07-27T04:32:19.684Z,100725.22
2022-07-27T04:37:22.445Z,100725.78
2022-07-27T04:42:26.713Z,100725.81
2022-07-27T04:47:29.744Z,100723.66
2022-07-27T04:52:32.539Z,100729.47
2022-07-27T04:57:36.757Z,100735.19
2022-07-27T05:02:41.618Z,100739.16
2022-07-27T05:07:44.412Z,100735.88
2022-07-27T05:12:48.797Z,100737.47
2022-07-27T05:17:52.309Z,100750.56
2022-07-27T05:22:55.072Z,100745.84
2022-07-27T05:27:59.209Z,100754.31
2022-07-27T05:33:02.022Z,100759.66
2022-07-27T05:38:04.835Z,100760.22
2022-07-27T05:43:09.247Z,100772.19
2022-07-27T05:48:12.119Z,100775.44
2022-07-27T05:53:14.922Z,100775.88
2022-07-27T05:58:19.152Z,100773.84
2022-07-27T06:03:27.575Z,100785.63
2022-07-27T06:08:30.404Z,100790.53
2022-07-27T06:13:36.580Z,100796.19
2022-07-27T06:18:39.728Z,100807.84
2022-07-27T06:23:42.555Z,100795.25
2022-07-27T06:28:46.831Z,100803.66
2022-07-27T06:33:52.244Z,100797.47
2022-07-27T06:38:55.262Z,100800.91
2022-07-27T06:43:59.460Z,100801.50
2022-07-27T06:49:02.345Z,100794.00
2022-07-27T06:54:05.377Z,100797.47
2022-07-27T06:59:09.758Z,100799.28
2022-07-27T07:04:13.065Z,100792.09
2022-07-27T07:09:16.176Z,100792.13
2022-07-27T07:14:20.550Z,100801.34
2022-07-27T07:19:23.494Z,100797.84
2022-07-27T07:24:26.304Z,100798.38
2022-07-27T07:29:30.496Z,100798.09
2022-07-27T07:34:33.294Z,100804.53
2022-07-27T07:39:36.978Z,100804.75
2022-07-27T07:44:41.637Z,100805.38
2022-07-27T07:49:44.550Z,100796.13
2022-07-27T07:54:47.406Z,100806.22
2022-07-27T07:59:51.727Z,100807.59
2022-07-27T08:04:54.606Z,100809.38
2022-07-27T08:09:57.430Z,100797.09
2022-07-27T08:15:01.719Z,100792.22
2022-07-27T08:20:05.202Z,100800.81
2022-07-27T08:25:10.327Z,100813.41
2022-07-27T08:30:15.581Z,100825.31
2022-07-27T08:40:41.050Z,100813.72
2022-07-27T08:45:52.731Z,100813.41
2022-07-27T08:50:56.044Z,100817.03
2022-07-27T08:55:58.891Z,100814.94
2022-07-27T09:01:03.062Z,100814.63
2022-07-27T09:06:05.968Z,100806.38
2022-07-27T09:11:16.126Z,100817.09
2022-07-27T09:17:03.140Z,100817.19
2022-07-27T09:21:54.030Z,100811.03
2022-07-27T09:27:04.136Z,100820.34
2022-07-27T09:32:16.844Z,100817.88
2022-07-27T09:37:24.950Z,100816.09
2022-07-27T09:43:05.477Z,100815.50
2022-07-27T09:47:53.190Z,100817.75
2022-07-27T09:52:56.165Z,100822.50
2022-07-27T09:57:59.990Z,100815.16
2022-07-27T10:03:04.186Z,100808.41
2022-07-27T10:08:07.388Z,100814.38
2022-07-27T10:13:10.803Z,100805.81
2022-07-27T10:18:20.958Z,100808.94
2022-07-27T10:23:30.346Z,100813.34
2022-07-27T10:28:33.178Z,100813.34
2022-07-27T10:33:48.758Z,100818.47
2022-07-27T10:38:56.422Z,100821.94
2022-07-27T10:44:29.660Z,100817.28
2022-07-27T10:49:40.579Z,100808.34
2022-07-27T10:54:49.577Z,100810.63
2022-07-27T11:00:14.736Z,100803.94
2022-07-27T11:05:53.717Z,100800.06
2022-07-27T11:10:44.674Z,100807.41
2022-07-27T11:15:56.039Z,100819.22
2022-07-27T11:21:26.885Z,100816.13
2022-07-27T11:26:31.406Z,100810.50
2022-07-27T11:31:54.892Z,100807.84
2022-07-27T11:37:02.088Z,100803.03
2022-07-27T11:42:09.055Z,100787.09
2022-07-27T11:47:17.734Z,100789.16
2022-07-27T11:52:23.666Z,100797.94
2022-07-27T11:57:32.572Z,100788.91
2022-07-27T12:02:35.486Z,100792.84
2022-07-27T12:07:41.022Z,100786.78
2022-07-27T12:12:50.297Z,100777.72
2022-07-27T12:17:56.969Z,100785.00
2022-07-27T12:23:06.526Z,100775.50
2022-07-27T12:28:12.556Z,100781.31
2022-07-27T12:33:29.048Z,100768.72
2022-07-27T12:38:40.460Z,100792.00
2022-07-27T12:43:43.301Z,100783.09
2022-07-27T12:48:46.152Z,100775.31
2022-07-27T12:53:50.782Z,100783.16
2022-07-27T12:59:00.788Z,100782.25
2022-07-27T13:04:03.631Z,100769.00
2022-07-27T13:09:07.799Z,100752.31
2022-07-27T13:14:10.664Z,100747.16
2022-07-27T13:19:15.398Z,100751.09
2022-07-27T13:24:20.348Z,100722.72
2022-07-27T13:29:23.142Z,100715.03
2022-07-27T13:34:26.076Z,100712.94
2022-07-27T13:39:30.862Z,100715.72
2022-07-27T13:45:00.903Z,100716.25
2022-07-27T13:50:00.029Z,100728.84
2022-07-27T13:55:04.447Z,100723.03
2022-07-27T14:00:12.272Z,100723.66
2022-07-27T14:05:15.812Z,100718.47
2022-07-27T14:10:41.735Z,100721.06
2022-07-27T14:15:53.469Z,100719.94
2022-07-27T14:21:00.146Z,100723.16
2022-07-27T14:26:06.326Z,100723.53
2022-07-27T14:31:10.736Z,100724.81
2022-07-27T14:36:13.586Z,100720.09
2022-07-27T14:41:17.851Z,100724.00
2022-07-27T14:46:20.706Z,100727.13
2022-07-27T14:51:23.803Z,100733.25
2022-07-27T14:56:27.974Z,100723.59
2022-07-27T15:01:31.015Z,100727.50
2022-07-27T15:06:38.892Z,100727.09
2022-07-27T15:11:43.765Z,100729.22
2022-07-27T15:16:48.397Z,100724.66
2022-07-27T15:21:51.395Z,100715.84
2022-07-27T15:26:55.713Z,100723.13
2022-07-27T15:31:58.612Z,100719.56
2022-07-27T15:37:01.493Z,100718.19
2022-07-27T15:42:06.350Z,100724.22
2022-07-27T15:47:09.479Z,100726.91
2022-07-27T15:52:12.318Z,100732.16
2022-07-27T15:57:16.515Z,100730.94
2022-07-27T16:02:20.682Z,100733.66
2022-07-27T16:07:27.740Z,100734.16
2022-07-27T16:12:44.893Z,100728.59
2022-07-27T16:17:47.733Z,100725.66
2022-07-27T16:22:51.278Z,100713.03
2022-07-27T16:27:55.458Z,100714.47
2022-07-27T16:32:58.556Z,100714.44
2022-07-27T16:38:01.416Z,100708.16
2022-07-27T16:43:05.999Z,100716.16
2022-07-27T16:48:08.887Z,100721.13
2022-07-27T16:53:11.661Z,100708.22
2022-07-27T16:58:15.823Z,100702.00
2022-07-27T17:03:18.589Z,100701.13
2022-07-27T17:08:21.634Z,100704.19
2022-07-27T17:13:34.163Z,100709.19
2022-07-27T17:18:40.570Z,100706.59
2022-07-27T17:23:43.960Z,100698.16
2022-07-27T17:28:48.360Z,100705.09
2022-07-27T17:33:51.658Z,100702.00
2022-07-27T17:38:54.572Z,100687.69
2022-07-27T17:43:58.730Z,100696.00
2022-07-27T17:49:01.750Z,100697.66
2022-07-27T17:54:04.798Z,100705.53
2022-07-27T17:59:27.315Z,100710.13
2022-07-27T18:04:34.468Z,100709.69
2022-07-27T18:09:41.537Z,100708.56
2022-07-27T18:14:59.573Z,100714.06
2022-07-27T18:20:02.387Z,100720.31
2022-07-27T18:25:06.111Z,100719.91
2022-07-27T18:30:11.997Z,100721.28
2022-07-27T18:35:14.835Z,100721.66
2022-07-27T18:40:17.688Z,100719.47
2022-07-27T18:45:21.807Z,100707.59
2022-07-27T18:50:39.647Z,100715.44
2022-07-27T18:55:42.824Z,100718.97
2022-07-27T19:00:46.978Z,100722.19
2022-07-27T19:05:50.875Z,100732.03
2022-07-27T19:10:55.653Z,100738.13
2022-07-27T19:16:00.903Z,100738.72
2022-07-27T19:21:03.783Z,100748.31
2022-07-27T19:26:06.942Z,100753.50
2022-07-27T19:31:23.338Z,100755.31
2022-07-27T19:36:26.650Z,100770.19
2022-07-27T19:41:29.466Z,100770.81
2022-07-27T19:46:33.698Z,100773.47
2022-07-27T19:51:36.539Z,100780.72
2022-07-27T19:56:39.423Z,100781.84
2022-07-27T20:01:43.659Z,100779.88
2022-07-27T20:06:46.485Z,100789.97
2022-07-27T20:11:49.274Z,100792.44
2022-07-27T20:16:53.539Z,100789.28
2022-07-27T20:21:57.201Z,100798.09
2022-07-27T20:27:00.048Z,100798.22
2022-07-27T20:32:04.745Z,100802.34
2022-07-27T20:37:07.568Z,100803.06
2022-07-27T20:42:10.905Z,100808.53
2022-07-27T20:47:15.253Z,100804.25
2022-07-27T20:52:18.411Z,100818.75
2022-07-27T20:57:21.356Z,100821.16
2022-07-27T21:02:25.553Z,100825.19
2022-07-27T21:07:28.534Z,100830.38
2022-07-27T21:12:31.473Z,100825.28
2022-07-27T21:17:35.614Z,100837.28
2022-07-27T21:22:38.462Z,100833.66
2022-07-27T21:27:41.280Z,100834.06
2022-07-27T21:32:46.418Z,100837.09
2022-07-27T21:37:49.282Z,100841.94
2022-07-27T21:42:52.505Z,100843.94
2022-07-27T21:47:56.726Z,100834.53
2022-07-27T21:53:00.065Z,100839.09
2022-07-27T21:58:02.936Z,100846.66
2022-07-27T22:03:07.202Z,100853.91
2022-07-27T22:08:10.171Z,100855.47
2022-07-27T22:13:12.977Z,100856.75
2022-07-27T22:18:17.225Z,100855.47
2022-07-27T22:23:20.100Z,100854.47
2022-07-27T22:28:23.679Z,100860.84
2022-07-27T22:33:30.391Z,100861.72
2022-07-27T22:38:33.197Z,100869.50
2022-07-27T22:43:36.084Z,100868.66
2022-07-27T22:48:40.271Z,100872.75
2022-07-27T22:53:43.335Z,100867.34
2022-07-27T22:58:46.160Z,100861.63
2022-07-27T23:03:50.362Z,100852.59
2022-07-27T23:08:53.178Z,100852.59
2022-07-27T23:13:56.066Z,100860.28
2022-07-27T23:19:00.199Z,100864.22
2022-07-27T23:24:05.001Z,100860.09
2022-07-27T23:29:07.937Z,100866.47
2022-07-27T23:34:12.513Z,100858.66
2022-07-27T23:39:15.601Z,100854.81
2022-07-27T23:44:18.575Z,100857.84
2022-07-27T23:49:22.804Z,100855.50
2022-07-27T23:54:25.577Z,100850.91
2022-07-27T23:59:28.424Z,100856.75
